Time;durP1;ratioP1;P1;durP2;ratioP2;P2;SDS_P1;SDS_P2;PMS_P1;PMS_P2;Temp;Humidity;BMP_temperature;BMP_pressure;BME280_temperature;BME280_humidity;BME280_pressure;Samples;Min_cycle;Max_cycle;Signal;HPM_P1;HPM_P2
2023/06/10 00:00:34;;;;;;;13.00;9.45;;;20.20;99.90;;;;;;5059381;28;20035;-73
2023/06/10 00:03:00;;;;;;;14.85;10.73;;;20.10;99.90;;;;;;5054321;28;20028;-73
2023/06/10 00:05:29;;;;;;;13.93;10.18;;;20.00;99.90;;;;;;5053425;28;20025;-73
2023/06/10 00:07:56;;;;;;;17.00;10.13;;;20.00;99.90;;;;;;5060350;28;20047;-73
2023/06/10 00:10:22;;;;;;;11.05;8.93;;;20.00;99.90;;;;;;5048815;28;20411;-73
2023/06/10 00:12:47;;;;;;;12.27;8.88;;;20.00;99.90;;;;;;5049138;28;20106;-73
2023/06/10 00:15:13;;;;;;;12.18;9.35;;;20.00;99.90;;;;;;5052455;28;20033;-73
2023/06/10 00:17:39;;;;;;;13.85;9.30;;;20.00;99.90;;;;;;5053230;28;20542;-73
2023/06/10 00:20:11;;;;;;;11.20;8.02;;;19.90;99.90;;;;;;5053839;28;20618;-73
2023/06/10 00:22:39;;;;;;;11.70;8.88;;;19.90;99.90;;;;;;5048381;28;20082;-73
2023/06/10 00:25:05;;;;;;;11.52;7.75;;;19.90;99.90;;;;;;5049112;28;20016;-73
2023/06/10 00:27:34;;;;;;;12.50;9.80;;;19.70;99.90;;;;;;5048420;28;20111;-73
2023/06/10 00:30:06;;;;;;;15.93;9.98;;;19.70;99.90;;;;;;5047212;28;20025;-73
2023/06/10 00:32:33;;;;;;;13.25;9.75;;;19.40;99.90;;;;;;5053827;28;20112;-73
2023/06/10 00:34:58;;;;;;;11.52;9.27;;;19.50;99.90;;;;;;5056089;28;20106;-73
2023/06/10 00:37:24;;;;;;;13.23;9.65;;;19.60;99.90;;;;;;5054169;28;20391;-73
2023/06/10 00:39:50;;;;;;;13.45;9.75;;;19.70;99.90;;;;;;5050790;28;20033;-73
2023/06/10 00:42:15;;;;;;;17.40;10.45;;;19.70;99.90;;;;;;5052368;28;20033;-73
2023/06/10 00:44:41;;;;;;;16.25;10.35;;;19.70;99.90;;;;;;5047167;28;20033;-73
2023/06/10 00:47:07;;;;;;;13.50;10.85;;;19.70;99.90;;;;;;5052712;28;20041;-73
2023/06/10 00:49:34;;;;;;;13.00;10.88;;;19.60;99.90;;;;;;5047948;28;20107;-73
2023/06/10 00:52:02;;;;;;;16.42;10.48;;;19.60;99.90;;;;;;5056515;28;20017;-73
2023/06/10 00:54:28;;;;;;;12.57;10.65;;;19.60;99.90;;;;;;5057719;28;20072;-73
2023/06/10 00:56:54;;;;;;;15.65;10.93;;;19.70;99.90;;;;;;5059648;28;20064;-73
2023/06/10 00:59:20;;;;;;;11.63;9.82;;;19.70;99.90;;;;;;5053969;28;20472;-73
2023/06/10 01:01:49;;;;;;;15.25;10.98;;;19.80;99.90;;;;;;5046967;28;20063;-73
2023/06/10 01:04:17;;;;;;;12.57;9.80;;;19.90;99.90;;;;;;5046962;28;20029;-73
2023/06/10 01:07:12;;;;;;;14.25;10.45;;;20.00;99.90;;;;;;5051032;28;20025;-73
2023/06/10 01:09:57;;;;;;;13.15;9.70;;;19.90;99.90;;;;;;5055027;28;20121;-73
2023/06/10 01:12:52;;;;;;;14.23;9.80;;;19.80;99.90;;;;;;5051256;28;20483;-73
2023/06/10 01:15:18;;;;;;;12.70;9.73;;;19.70;99.90;;;;;;5055305;28;20021;-73
2023/06/10 01:17:58;;;;;;;14.20;10.60;;;19.70;99.90;;;;;;5056578;28;20101;-73
2023/06/10 01:20:27;;;;;;;13.82;9.57;;;19.90;99.90;;;;;;5058263;28;20033;-73
2023/06/10 01:22:57;;;;;;;16.45;9.23;;;19.90;99.90;;;;;;5052648;28;20024;-73
2023/06/10 01:25:27;;;;;;;14.10;10.10;;;19.80;99.90;;;;;;5052135;28;20021;-73
2023/06/10 01:28:46;;;;;;;13.77;10.20;;;19.80;99.90;;;;;;5056351;28;20144;-73
2023/06/10 01:31:50;;;;;;;17.98;10.10;;;19.70;99.90;;;;;;5048672;28;20514;-73
2023/06/10 01:34:18;;;;;;;12.27;9.05;;;19.70;99.90;;;;;;5052511;28;20028;-73
2023/06/10 01:36:48;;;;;;;13.95;8.95;;;19.70;99.90;;;;;;5051457;28;20045;-73
2023/06/10 01:39:22;;;;;;;11.20;9.13;;;19.60;99.90;;;;;;5057013;28;20029;-73
2023/06/10 01:41:49;;;;;;;12.23;8.25;;;19.50;99.90;;;;;;5054228;28;20044;-73
2023/06/10 01:44:19;;;;;;;13.30;9.45;;;19.40;99.90;;;;;;5058380;28;20046;-73
2023/06/10 01:46:45;;;;;;;13.00;9.07;;;19.40;99.90;;;;;;5051052;28;20490;-73
2023/06/10 01:49:10;;;;;;;10.35;8.07;;;19.50;99.90;;;;;;5052102;28;20025;-73
2023/06/10 01:51:36;;;;;;;12.02;8.55;;;19.50;99.90;;;;;;5050322;28;20498;-73
2023/06/10 01:54:02;;;;;;;13.77;10.25;;;19.50;99.90;;;;;;5063128;28;20056;-73
2023/06/10 01:56:27;;;;;;;10.98;8.27;;;19.50;99.90;;;;;;5068104;28;20029;-73
2023/06/10 01:58:58;;;;;;;12.68;8.35;;;19.50;99.90;;;;;;5053745;28;20493;-73
2023/06/10 02:01:27;;;;;;;13.20;9.40;;;19.40;99.90;;;;;;5056630;28;20378;-73
2023/06/10 02:03:53;;;;;;;11.55;7.60;;;19.20;99.90;;;;;;5058705;28;20021;-73
2023/06/10 02:06:19;;;;;;;10.55;7.85;;;19.20;99.90;;;;;;5054672;28;20124;-73
2023/06/10 02:08:44;;;;;;;12.13;8.23;;;19.10;99.90;;;;;;5061671;28;20110;-73
2023/06/10 02:11:10;;;;;;;11.25;8.65;;;19.00;99.90;;;;;;5050964;28;20083;-73
2023/06/10 02:13:36;;;;;;;11.77;8.75;;;18.80;99.90;;;;;;5054412;28;20040;-73
2023/06/10 02:16:01;;;;;;;10.98;8.30;;;18.90;99.90;;;;;;5049830;28;20375;-73
2023/06/10 02:18:28;;;;;;;14.40;8.68;;;18.90;99.90;;;;;;5050634;28;20029;-73
2023/06/10 02:20:54;;;;;;;10.88;8.30;;;19.00;99.90;;;;;;5059670;28;20043;-73
2023/06/10 02:23:19;;;;;;;15.30;11.63;;;19.00;99.90;;;;;;5056755;28;20033;-73
2023/06/10 02:25:47;;;;;;;10.70;8.10;;;19.00;99.90;;;;;;5053428;28;20028;-73
2023/06/10 02:28:13;;;;;;;10.90;9.20;;;19.00;99.90;;;;;;5057649;28;20124;-73
2023/06/10 02:30:40;;;;;;;11.52;8.60;;;19.00;99.90;;;;;;5050196;28;20111;-73
2023/06/10 02:33:09;;;;;;;14.85;9.48;;;18.90;99.90;;;;;;5056210;28;20108;-73
2023/06/10 02:35:36;;;;;;;11.70;8.52;;;18.80;99.90;;;;;;5051772;28;20556;-73
2023/06/10 02:38:02;;;;;;;10.13;7.70;;;18.70;99.90;;;;;;5055355;28;20112;-73
2023/06/10 02:40:28;;;;;;;11.23;8.68;;;18.80;99.90;;;;;;5061060;28;20071;-73
2023/06/10 02:42:53;;;;;;;11.85;8.25;;;18.80;99.90;;;;;;5064276;28;20096;-73
2023/06/10 02:45:19;;;;;;;12.15;8.77;;;18.70;99.90;;;;;;5051903;28;20021;-73
2023/06/10 02:47:45;;;;;;;12.52;8.55;;;18.60;99.90;;;;;;5054801;28;20036;-73
2023/06/10 02:50:11;;;;;;;10.73;8.38;;;18.60;99.90;;;;;;5057752;28;20056;-73
2023/06/10 02:52:37;;;;;;;10.70;8.13;;;18.50;99.90;;;;;;5058179;28;20056;-73
2023/06/10 02:55:03;;;;;;;11.45;8.82;;;18.50;99.90;;;;;;5052696;28;20450;-73
2023/06/10 02:57:28;;;;;;;13.60;8.50;;;18.60;99.90;;;;;;5053153;28;20068;-73
2023/06/10 02:59:54;;;;;;;11.35;7.38;;;18.50;99.90;;;;;;5058943;28;20025;-73
2023/06/10 03:02:20;;;;;;;11.77;8.38;;;18.40;99.90;;;;;;5051842;28;20055;-72
2023/06/10 03:04:46;;;;;;;10.57;7.85;;;18.30;99.90;;;;;;5047959;28;20475;-72
2023/06/10 03:07:12;;;;;;;9.95;7.40;;;18.30;99.90;;;;;;5049262;28;20025;-72
2023/06/10 03:09:38;;;;;;;10.77;7.93;;;18.20;99.90;;;;;;5054353;28;20024;-71
2023/06/10 03:12:04;;;;;;;10.85;7.90;;;18.20;99.90;;;;;;5043923;28;20463;-72
2023/06/10 03:14:30;;;;;;;12.38;9.20;;;18.20;99.90;;;;;;5048572;28;20031;-72
2023/06/10 03:16:56;;;;;;;15.43;8.68;;;18.20;99.90;;;;;;5049860;28;20684;-72
2023/06/10 03:19:23;;;;;;;15.52;9.02;;;18.20;99.90;;;;;;5044433;28;20556;-72
2023/06/10 03:21:54;;;;;;;13.93;8.90;;;18.20;99.90;;;;;;5043509;28;20533;-72
2023/06/10 03:24:20;;;;;;;10.35;7.38;;;18.10;99.90;;;;;;5047790;28;20024;-71
2023/06/10 03:26:46;;;;;;;10.52;7.65;;;18.00;99.90;;;;;;5051808;28;20024;-72
2023/06/10 03:29:11;;;;;;;10.50;7.38;;;17.90;99.90;;;;;;5050830;28;20028;-72
2023/06/10 03:31:38;;;;;;;9.82;7.50;;;17.90;99.90;;;;;;5056825;28;20088;-71
2023/06/10 03:34:04;;;;;;;11.25;7.90;;;17.90;99.90;;;;;;5043695;28;20029;-72
2023/06/10 03:36:30;;;;;;;11.35;7.32;;;18.10;99.90;;;;;;5043200;28;20044;-71
2023/06/10 03:38:56;;;;;;;10.65;8.25;;;18.10;99.90;;;;;;5047366;28;20040;-72
2023/06/10 03:41:22;;;;;;;16.70;7.25;;;18.10;99.90;;;;;;5049296;28;20127;-71
2023/06/10 03:43:48;;;;;;;9.18;7.07;;;18.20;99.90;;;;;;5050679;28;20033;-72
2023/06/10 03:46:14;;;;;;;14.40;7.32;;;18.30;99.90;;;;;;5053438;28;20520;-72
2023/06/10 03:48:41;;;;;;;11.80;7.75;;;18.30;99.90;;;;;;5045198;28;20362;-72
2023/06/10 03:51:07;;;;;;;11.80;7.75;;;18.10;99.90;;;;;;5043703;28;20029;-72
2023/06/10 03:53:32;;;;;;;12.70;7.07;;;18.10;99.90;;;;;;5043978;28;20032;-72
2023/06/10 03:55:58;;;;;;;19.45;7.57;;;18.10;99.90;;;;;;5043555;28;20830;-72
2023/06/10 03:58:24;;;;;;;15.02;7.50;;;18.10;99.90;;;;;;5047999;28;20069;-71
2023/06/10 04:00:49;;;;;;;17.52;7.97;;;18.10;99.90;;;;;;5048427;28;20033;-72
2023/06/10 04:03:15;;;;;;;9.70;7.45;;;18.10;99.90;;;;;;5049995;28;20202;-72
2023/06/10 04:05:41;;;;;;;9.20;6.78;;;18.10;99.90;;;;;;5052374;28;20033;-72
2023/06/10 04:08:07;;;;;;;9.43;7.05;;;18.20;99.90;;;;;;5050183;28;20036;-72
2023/06/10 04:10:33;;;;;;;9.88;7.30;;;18.10;99.90;;;;;;5046129;28;20033;-72
2023/06/10 04:12:59;;;;;;;9.77;6.75;;;18.20;99.90;;;;;;5045347;28;20029;-72
2023/06/10 04:15:25;;;;;;;8.50;6.30;;;18.30;99.90;;;;;;5056105;28;20025;-72
2023/06/10 04:17:51;;;;;;;10.05;6.47;;;18.40;99.90;;;;;;5044690;28;20070;-72
2023/06/10 04:20:16;;;;;;;10.38;6.75;;;18.40;99.90;;;;;;5050257;28;20021;-72
2023/06/10 04:22:42;;;;;;;10.48;6.20;;;18.50;99.90;;;;;;5060101;28;20051;-72
2023/06/10 04:25:09;;;;;;;11.18;6.65;;;18.50;99.90;;;;;;5047427;28;20166;-72
2023/06/10 04:27:35;;;;;;;9.77;6.65;;;18.60;99.90;;;;;;5048001;28;20040;-72
2023/06/10 04:30:00;;;;;;;8.63;6.57;;;18.70;99.90;;;;;;5051266;28;20029;-72
2023/06/10 04:32:26;;;;;;;9.70;5.57;;;18.70;99.90;;;;;;5049024;28;20029;-72
2023/06/10 04:34:52;;;;;;;7.97;5.72;;;18.60;99.90;;;;;;5048082;28;20106;-72
2023/06/10 04:37:18;;;;;;;10.40;6.88;;;18.70;99.90;;;;;;5048039;28;20032;-72
2023/06/10 04:39:43;;;;;;;8.88;6.78;;;18.70;99.90;;;;;;5044919;28;20209;-72
2023/06/10 04:42:09;;;;;;;9.13;6.47;;;18.70;99.90;;;;;;5044765;28;20133;-72
2023/06/10 04:44:35;;;;;;;10.20;6.45;;;18.70;99.90;;;;;;5049974;28;20032;-72
2023/06/10 04:47:00;;;;;;;10.10;6.78;;;18.70;99.90;;;;;;5047493;28;20028;-72
2023/06/10 04:49:26;;;;;;;9.13;6.05;;;18.80;99.90;;;;;;5050041;28;20025;-73
2023/06/10 04:51:52;;;;;;;9.07;5.97;;;18.80;99.90;;;;;;5052200;28;20044;-73
2023/06/10 04:54:17;;;;;;;8.98;6.40;;;18.80;99.90;;;;;;5048043;28;20605;-73
2023/06/10 04:56:43;;;;;;;9.88;7.75;;;18.80;99.90;;;;;;5041238;28;20037;-73
2023/06/10 04:59:08;;;;;;;9.40;7.28;;;18.80;99.90;;;;;;5042634;28;20088;-73
2023/06/10 05:01:34;;;;;;;12.55;8.15;;;18.90;99.90;;;;;;5045058;28;20031;-73
2023/06/10 05:04:00;;;;;;;11.25;8.55;;;19.00;99.90;;;;;;5041397;28;20515;-73
2023/06/10 05:06:25;;;;;;;9.88;7.68;;;19.00;99.90;;;;;;5049385;28;20043;-73
2023/06/10 05:08:51;;;;;;;9.65;6.85;;;19.00;99.90;;;;;;5041141;28;20043;-73
2023/06/10 05:11:17;;;;;;;11.63;8.13;;;19.10;99.90;;;;;;5044052;28;20403;-73
2023/06/10 05:13:43;;;;;;;16.30;7.95;;;19.20;99.90;;;;;;5041072;28;20041;-73
2023/06/10 05:16:09;;;;;;;11.02;8.82;;;19.10;99.90;;;;;;5048695;28;20467;-73
2023/06/10 05:18:35;;;;;;;10.77;8.07;;;19.20;99.90;;;;;;5047440;28;20039;-73
2023/06/10 05:21:02;;;;;;;10.18;7.95;;;19.30;99.90;;;;;;5057886;28;20025;-73
2023/06/10 05:23:27;;;;;;;10.70;7.95;;;19.20;99.90;;;;;;5047129;28;20021;-73
2023/06/10 05:25:54;;;;;;;9.18;6.93;;;19.20;99.90;;;;;;5044241;28;20619;-73
2023/06/10 05:28:20;;;;;;;8.90;7.50;;;19.20;99.90;;;;;;5042732;28;20021;-73
2023/06/10 05:30:46;;;;;;;10.43;7.78;;;19.10;99.90;;;;;;5046428;28;20063;-73
2023/06/10 05:33:11;;;;;;;13.07;6.95;;;19.20;99.90;;;;;;5046948;28;20471;-73
2023/06/10 05:35:37;;;;;;;8.82;7.10;;;19.30;99.90;;;;;;5044819;28;20033;-73
2023/06/10 05:38:03;;;;;;;10.68;7.45;;;19.40;99.90;;;;;;5052925;28;20033;-73
2023/06/10 05:40:28;;;;;;;11.05;6.80;;;19.40;99.90;;;;;;5044898;28;20029;-73
2023/06/10 05:42:54;;;;;;;10.07;6.90;;;19.50;99.90;;;;;;5048010;28;20035;-73
2023/06/10 05:45:19;;;;;;;10.20;6.07;;;19.50;99.90;;;;;;5055646;28;20025;-73
2023/06/10 05:47:45;;;;;;;8.35;5.85;;;19.60;99.90;;;;;;5044237;28;20016;-73
2023/06/10 05:50:11;;;;;;;8.07;5.85;;;19.60;99.90;;;;;;5053607;28;20417;-73
2023/06/10 05:52:37;;;;;;;8.88;5.40;;;19.70;99.90;;;;;;5050996;28;20041;-73
2023/06/10 05:55:03;;;;;;;6.68;5.00;;;19.70;99.90;;;;;;5054004;28;20086;-73
2023/06/10 05:57:29;;;;;;;16.85;5.97;;;19.80;99.90;;;;;;5053558;28;20048;-73
2023/06/10 05:59:55;;;;;;;9.48;5.70;;;19.80;99.90;;;;;;5047807;28;20033;-73
2023/06/10 06:02:20;;;;;;;10.00;7.72;;;19.90;99.90;;;;;;5047513;28;20055;-73
2023/06/10 06:04:46;;;;;;;15.57;9.27;;;20.00;99.90;;;;;;5061390;28;20029;-73
2023/06/10 06:07:12;;;;;;;13.57;10.43;;;20.00;99.90;;;;;;5055105;28;20025;-73
2023/06/10 06:09:37;;;;;;;15.38;11.45;;;20.00;99.90;;;;;;5054412;28;20510;-73
2023/06/10 06:12:03;;;;;;;15.88;11.65;;;20.10;99.90;;;;;;5046878;28;20032;-73
2023/06/10 06:14:31;;;;;;;13.98;11.48;;;20.10;99.90;;;;;;5053938;28;20028;-73
2023/06/10 06:16:57;;;;;;;17.08;12.05;;;20.10;99.90;;;;;;5049622;28;20059;-73
2023/06/10 06:19:23;;;;;;;13.10;10.57;;;20.00;99.90;;;;;;5047644;28;20032;-73
2023/06/10 06:21:48;;;;;;;14.82;10.88;;;20.10;99.90;;;;;;5047167;28;20421;-73
2023/06/10 06:24:16;;;;;;;13.80;9.90;;;20.30;99.90;;;;;;5048832;28;20581;-73
2023/06/10 06:26:41;;;;;;;12.45;9.60;;;20.50;99.90;;;;;;5045784;28;20036;-73
2023/06/10 06:29:07;;;;;;;13.85;10.93;;;20.60;99.90;;;;;;5052853;28;20024;-73
2023/06/10 06:31:33;;;;;;;12.65;9.80;;;20.60;99.90;;;;;;5046334;28;20036;-72
2023/06/10 06:33:58;;;;;;;14.60;10.63;;;20.50;99.90;;;;;;5055621;28;20038;-72
2023/06/10 06:36:24;;;;;;;13.55;10.90;;;20.50;99.90;;;;;;5049839;28;20048;-71
2023/06/10 06:38:50;;;;;;;13.82;10.57;;;20.60;99.90;;;;;;5047692;28;20063;-71
2023/06/10 06:41:15;;;;;;;12.68;10.55;;;20.70;99.90;;;;;;5045056;28;20474;-71
2023/06/10 06:43:42;;;;;;;18.65;10.25;;;20.80;99.90;;;;;;5053441;28;20041;-71
2023/06/10 06:46:08;;;;;;;13.95;9.77;;;21.00;99.90;;;;;;5049299;28;20418;-71
2023/06/10 06:48:35;;;;;;;14.13;11.02;;;21.00;99.90;;;;;;5046853;28;20074;-71
2023/06/10 06:51:00;;;;;;;14.32;10.90;;;21.10;99.90;;;;;;5055293;28;20029;-72
2023/06/10 06:53:26;;;;;;;16.38;10.52;;;21.20;99.90;;;;;;5046708;28;20075;-71
2023/06/10 06:55:52;;;;;;;16.92;10.82;;;21.10;99.90;;;;;;5050782;28;20033;-71
2023/06/10 06:58:17;;;;;;;15.73;11.07;;;21.10;99.90;;;;;;5043885;28;20057;-71
2023/06/10 07:00:43;;;;;;;14.50;11.20;;;21.10;99.90;;;;;;5046368;28;20124;-71
2023/06/10 07:03:09;;;;;;;15.65;11.63;;;21.10;99.90;;;;;;5053264;28;20391;-72
2023/06/10 07:05:34;;;;;;;15.65;10.60;;;21.10;99.90;;;;;;5055353;28;20025;-71
2023/06/10 07:08:00;;;;;;;13.93;11.40;;;21.10;99.90;;;;;;5051492;28;20033;-73
2023/06/10 07:10:26;;;;;;;14.35;11.50;;;21.20;99.90;;;;;;5045657;28;20028;-73
2023/06/10 07:12:52;;;;;;;20.27;10.45;;;21.10;99.90;;;;;;5047406;28;20040;-73
2023/06/10 07:15:18;;;;;;;15.68;11.23;;;21.40;99.90;;;;;;5050321;28;20418;-73
2023/06/10 07:17:44;;;;;;;14.88;10.48;;;21.50;99.90;;;;;;5045909;28;20044;-73
2023/06/10 07:20:10;;;;;;;16.40;10.10;;;21.50;99.90;;;;;;5050062;28;20029;-73
2023/06/10 07:22:36;;;;;;;16.90;10.75;;;21.60;99.90;;;;;;5052817;28;20028;-73
2023/06/10 07:25:02;;;;;;;11.57;9.65;;;21.60;99.90;;;;;;5050568;28;20035;-73
2023/06/10 07:27:27;;;;;;;15.60;11.38;;;21.80;99.90;;;;;;5046588;28;20036;-73
2023/06/10 07:29:53;;;;;;;14.68;11.38;;;21.90;99.90;;;;;;5051512;28;22852;-73
2023/06/10 07:32:23;;;;;;;13.20;10.63;;;21.70;99.90;;;;;;5047848;28;20047;-73
2023/06/10 07:34:50;;;;;;;14.30;10.77;;;21.70;99.90;;;;;;5051966;28;20335;-73
2023/06/10 07:37:16;;;;;;;16.20;12.40;;;21.60;99.90;;;;;;5045703;28;20060;-73
2023/06/10 07:39:43;;;;;;;14.88;11.60;;;21.60;99.90;;;;;;5046376;28;20142;-73
2023/06/10 07:42:09;;;;;;;13.40;10.90;;;21.70;99.90;;;;;;5048472;28;20524;-73
2023/06/10 07:44:34;;;;;;;14.75;10.95;;;21.80;99.90;;;;;;5047404;28;20466;-73
2023/06/10 07:47:00;;;;;;;14.23;11.85;;;22.10;99.90;;;;;;5046279;28;20028;-73
2023/06/10 07:49:26;;;;;;;15.23;10.95;;;22.00;99.90;;;;;;5048861;28;20215;-73
2023/06/10 07:51:53;;;;;;;13.32;11.02;;;22.20;99.90;;;;;;5045140;28;20087;-73
2023/06/10 07:54:19;;;;;;;16.20;10.88;;;22.10;99.90;;;;;;5049543;28;20447;-73
2023/06/10 07:56:45;;;;;;;15.50;10.90;;;22.30;99.90;;;;;;5047789;28;20036;-71
2023/06/10 07:59:10;;;;;;;15.48;10.63;;;22.50;99.90;;;;;;5062231;28;20763;-74
2023/06/10 08:01:38;;;;;;;15.02;10.48;;;22.60;99.90;;;;;;5064435;28;20687;-74
2023/06/10 08:04:04;;;;;;;14.93;10.40;;;22.70;99.90;;;;;;5059792;28;20422;-74
2023/06/10 08:06:29;;;;;;;15.85;11.32;;;22.60;99.90;;;;;;5048233;28;20113;-74
2023/06/10 08:08:55;;;;;;;15.30;10.23;;;22.70;99.90;;;;;;5061058;28;20363;-74
2023/06/10 08:11:21;;;;;;;12.38;9.38;;;23.00;99.90;;;;;;5063421;28;20432;-74
2023/06/10 08:13:46;;;;;;;13.52;9.73;;;23.20;99.90;;;;;;5057345;28;20028;-74
2023/06/10 08:16:12;;;;;;;14.57;10.30;;;23.20;99.90;;;;;;5065713;28;20029;-73
2023/06/10 08:18:38;;;;;;;13.93;9.77;;;23.10;99.90;;;;;;5062176;28;20105;-73
2023/06/10 08:21:03;;;;;;;15.35;11.35;;;23.20;99.90;;;;;;5059502;28;20066;-73
2023/06/10 08:23:29;;;;;;;23.27;11.88;;;24.00;99.90;;;;;;5056585;28;20029;-73
2023/06/10 08:25:55;;;;;;;16.45;12.07;;;24.40;99.90;;;;;;5062612;28;20024;-73
2023/06/10 08:28:20;;;;;;;19.92;12.82;;;24.50;99.90;;;;;;5061946;28;20048;-73
2023/06/10 08:30:46;;;;;;;15.23;12.82;;;24.70;99.90;;;;;;5060185;28;20497;-73
2023/06/10 08:33:11;;;;;;;13.65;11.65;;;24.80;99.90;;;;;;5066054;28;20024;-73
2023/06/10 08:35:37;;;;;;;14.63;11.40;;;24.50;99.90;;;;;;5059641;28;20059;-74
2023/06/10 08:38:03;;;;;;;13.15;10.55;;;24.80;99.90;;;;;;5050540;28;20395;-71
2023/06/10 08:40:28;;;;;;;17.92;12.63;;;25.30;99.90;;;;;;5061899;28;20406;-73
2023/06/10 08:43:05;;;;;;;14.77;11.25;;;25.00;99.90;;;;;;5063217;28;20024;-73
2023/06/10 08:45:32;;;;;;;19.73;13.10;;;24.80;99.90;;;;;;5067190;28;20020;-73
2023/06/10 08:47:58;;;;;;;17.58;13.32;;;24.60;99.90;;;;;;5065039;28;20487;-73
2023/06/10 08:50:26;;;;;;;19.88;16.30;;;24.90;99.90;;;;;;5066338;28;20412;-73
2023/06/10 08:52:57;;;;;;;20.42;16.08;;;24.80;99.90;;;;;;5066500;28;20032;-73
2023/06/10 08:55:43;;;;;;;25.00;16.88;;;24.90;99.90;;;;;;5065358;28;20032;-73
2023/06/10 08:58:10;;;;;;;26.83;16.77;;;24.90;99.90;;;;;;5064499;28;20140;-73
2023/06/10 09:00:36;;;;;;;25.35;18.48;;;24.60;99.90;;;;;;5066717;28;20027;-73
2023/06/10 09:03:03;;;;;;;20.75;16.13;;;24.30;99.90;;;;;;5066028;28;20139;-73
2023/06/10 09:05:29;;;;;;;19.83;14.15;;;24.40;99.90;;;;;;5067581;28;20029;-73
2023/06/10 09:07:57;;;;;;;18.80;15.77;;;24.90;99.90;;;;;;5066526;28;20024;-73
2023/06/10 09:10:22;;;;;;;19.25;15.13;;;25.20;99.90;;;;;;5067100;28;20036;-73
2023/06/10 09:12:48;;;;;;;19.77;15.65;;;25.40;99.90;;;;;;5067657;28;20032;-73
2023/06/10 09:15:14;;;;;;;19.88;15.60;;;25.40;99.90;;;;;;5067322;28;20036;-73
2023/06/10 09:17:40;;;;;;;21.13;16.92;;;25.40;99.90;;;;;;5056528;28;20029;-73
2023/06/10 09:20:08;;;;;;;23.10;16.25;;;25.20;99.60;;;;;;5047266;28;20072;-73
2023/06/10 09:22:34;;;;;;;23.08;16.65;;;24.90;99.90;;;;;;5054822;28;20410;-73
2023/06/10 09:25:08;;;;;;;22.63;17.13;;;25.20;99.90;;;;;;5066013;28;20032;-73
2023/06/10 09:27:56;;;;;;;19.50;15.77;;;25.40;99.80;;;;;;5068848;28;20024;-73
2023/06/10 09:30:33;;;;;;;19.90;16.02;;;25.80;99.50;;;;;;5069842;28;20036;-73
2023/06/10 09:33:02;;;;;;;21.63;16.45;;;25.80;99.90;;;;;;5066141;28;20067;-73
2023/06/10 09:35:29;;;;;;;22.15;16.35;;;25.50;99.70;;;;;;5067090;28;20064;-73
2023/06/10 09:37:57;;;;;;;21.10;17.83;;;25.30;99.90;;;;;;5067475;28;20532;-74
2023/06/10 09:40:23;;;;;;;23.65;16.95;;;25.10;99.90;;;;;;5067901;28;20093;-73
2023/06/10 09:43:11;;;;;;;21.73;16.08;;;25.00;99.90;;;;;;5068091;28;20664;-74
2023/06/10 09:45:37;;;;;;;19.42;14.73;;;25.10;99.90;;;;;;5060946;28;20033;-74
2023/06/10 09:48:02;;;;;;;20.10;14.93;;;25.40;99.90;;;;;;5068802;28;20842;-74
2023/06/10 09:50:32;;;;;;;22.95;16.42;;;25.50;99.30;;;;;;5069983;28;20036;-74
2023/06/10 09:52:58;;;;;;;20.92;15.27;;;25.80;99.00;;;;;;5069417;28;20024;-74
2023/06/10 09:55:24;;;;;;;20.80;15.63;;;25.60;98.90;;;;;;5069305;28;20512;-74
2023/06/10 09:57:53;;;;;;;17.45;15.57;;;25.60;98.10;;;;;;5068539;28;20056;-74
2023/06/10 10:00:18;;;;;;;16.92;13.82;;;25.70;97.80;;;;;;5067861;28;20024;-74
2023/06/10 10:02:50;;;;;;;17.85;14.02;;;26.10;98.10;;;;;;5068017;28;20039;-74
2023/06/10 10:05:17;;;;;;;21.95;15.00;;;25.80;98.50;;;;;;5066437;28;20111;-73
2023/06/10 10:07:43;;;;;;;16.38;14.02;;;25.80;98.90;;;;;;5068941;28;20035;-73
2023/06/10 10:10:11;;;;;;;19.33;16.48;;;25.90;99.50;;;;;;5069163;28;20033;-73
2023/06/10 10:12:38;;;;;;;20.02;16.17;;;25.90;99.10;;;;;;5067042;28;20028;-73
2023/06/10 10:15:07;;;;;;;22.50;15.48;;;25.80;99.90;;;;;;5067680;28;20059;-73
2023/06/10 10:17:34;;;;;;;20.73;16.10;;;26.00;99.90;;;;;;5057664;28;20029;-73
2023/06/10 10:20:05;;;;;;;20.05;15.32;;;26.20;99.20;;;;;;5068468;28;20036;-73
2023/06/10 10:22:42;;;;;;;16.52;13.18;;;26.00;98.10;;;;;;5068327;28;20029;-73
2023/06/10 10:25:12;;;;;;;23.27;13.85;;;25.90;98.60;;;;;;5069638;28;20033;-73
2023/06/10 10:28:01;;;;;;;15.60;12.95;;;25.90;98.00;;;;;;5069075;28;20032;-73
2023/06/10 10:30:30;;;;;;;18.05;14.00;;;26.10;98.30;;;;;;5069274;28;20467;-73
2023/06/10 10:32:59;;;;;;;17.92;15.18;;;26.50;98.30;;;;;;5068514;28;20055;-72
2023/06/10 10:35:25;;;;;;;17.88;14.73;;;26.20;98.30;;;;;;5067647;28;20025;-73
2023/06/10 10:37:55;;;;;;;17.15;13.65;;;26.40;98.60;;;;;;5060361;28;20040;-74
2023/06/10 10:40:22;;;;;;;19.02;15.10;;;26.10;99.10;;;;;;5065399;28;20104;-74
2023/06/10 10:42:48;;;;;;;16.45;13.63;;;26.10;99.70;;;;;;5054338;28;20037;-74
2023/06/10 10:45:14;;;;;;;21.98;14.20;;;26.40;99.40;;;;;;5064804;28;20067;-74
2023/06/10 10:47:42;;;;;;;21.35;14.45;;;26.70;98.40;;;;;;5065076;28;20115;-74
2023/06/10 10:50:16;;;;;;;19.17;14.63;;;26.90;98.70;;;;;;5063824;28;20028;-74
2023/06/10 10:52:53;;;;;;;15.15;12.35;;;27.00;98.90;;;;;;5064236;28;20059;-73
2023/06/10 10:55:19;;;;;;;15.82;11.85;;;26.90;98.20;;;;;;5061745;28;20024;-74
2023/06/10 10:58:03;;;;;;;14.32;11.73;;;26.90;96.40;;;;;;5062319;28;20060;-75
2023/06/10 11:00:30;;;;;;;14.32;10.55;;;26.90;97.80;;;;;;5056761;28;20074;-74
2023/06/10 11:03:09;;;;;;;14.00;11.70;;;26.80;98.30;;;;;;5055447;28;20057;-75
2023/06/10 11:05:37;;;;;;;15.00;11.43;;;27.00;98.50;;;;;;5063002;28;20025;-73
2023/06/10 11:08:03;;;;;;;16.17;11.18;;;27.00;97.50;;;;;;5065437;28;20051;-75
2023/06/10 11:10:37;;;;;;;14.77;10.85;;;27.00;97.90;;;;;;5063192;28;20048;-74
2023/06/10 11:13:07;;;;;;;13.05;10.05;;;27.20;98.20;;;;;;5062009;28;20089;-73
2023/06/10 11:15:37;;;;;;;12.82;10.40;;;27.30;97.80;;;;;;5066091;28;20028;-74
2023/06/10 11:18:19;;;;;;;18.75;12.02;;;27.60;98.20;;;;;;5059040;28;20041;-73
2023/06/10 11:20:48;;;;;;;14.13;11.02;;;28.10;98.00;;;;;;5043044;28;20039;-75
2023/06/10 11:23:29;;;;;;;12.85;10.35;;;27.50;97.80;;;;;;5041173;28;20041;-73
2023/06/10 11:26:13;;;;;;;13.82;10.40;;;27.70;98.50;;;;;;5043321;28;20080;-72
2023/06/10 11:28:59;;;;;;;14.15;11.13;;;27.80;97.20;;;;;;5052229;28;20035;-73
2023/06/10 11:31:26;;;;;;;13.75;11.52;;;28.10;98.60;;;;;;5055334;28;20093;-73
2023/06/10 11:33:57;;;;;;;14.52;11.27;;;27.90;97.70;;;;;;5047337;28;20055;-73
2023/06/10 11:36:24;;;;;;;17.40;12.68;;;27.90;98.40;;;;;;5048953;28;20486;-73
2023/06/10 11:38:55;;;;;;;16.30;12.65;;;27.60;97.80;;;;;;5048439;28;20029;-73
2023/06/10 11:41:21;;;;;;;15.60;12.63;;;27.10;98.30;;;;;;5062447;28;20119;-72
2023/06/10 11:43:47;;;;;;;12.23;10.65;;;26.70;98.60;;;;;;5055873;28;20028;-72
2023/06/10 11:46:14;;;;;;;12.27;10.15;;;27.20;98.60;;;;;;5050035;28;20169;-72
2023/06/10 11:48:48;;;;;;;13.27;10.18;;;27.70;97.20;;;;;;5047808;28;20029;-73
2023/06/10 11:51:14;;;;;;;15.07;10.48;;;27.80;97.10;;;;;;5048399;28;20031;-72
2023/06/10 11:53:39;;;;;;;16.27;10.48;;;27.20;97.40;;;;;;5057797;28;20033;-73
2023/06/10 11:56:05;;;;;;;15.82;10.93;;;26.80;97.80;;;;;;5045762;28;20652;-73
2023/06/10 11:58:31;;;;;;;12.70;9.13;;;27.00;98.50;;;;;;5044729;28;20048;-73
2023/06/10 12:00:57;;;;;;;11.43;9.80;;;27.30;98.40;;;;;;5047170;28;20048;-73
2023/06/10 12:03:25;;;;;;;10.57;8.57;;;27.70;98.40;;;;;;5047561;28;20029;-73
2023/06/10 12:05:58;;;;;;;12.02;9.50;;;27.90;97.50;;;;;;5049678;28;20655;-73
2023/06/10 12:08:25;;;;;;;11.57;9.15;;;27.40;97.10;;;;;;5048154;28;20029;-72
2023/06/10 12:10:51;;;;;;;10.73;8.40;;;27.00;98.40;;;;;;5043078;28;20028;-73
2023/06/10 12:13:20;;;;;;;10.77;8.77;;;27.40;97.30;;;;;;5042282;28;20147;-72
2023/06/10 12:15:46;;;;;;;12.38;9.27;;;27.80;98.00;;;;;;5047208;28;20457;-72
2023/06/10 12:18:19;;;;;;;11.98;8.77;;;28.00;98.00;;;;;;5046335;28;20372;-73
2023/06/10 12:20:46;;;;;;;12.80;9.23;;;28.00;97.90;;;;;;5044576;28;20100;-73
2023/06/10 12:23:12;;;;;;;10.95;9.02;;;27.40;96.80;;;;;;5050455;28;20028;-73
2023/06/10 12:25:39;;;;;;;11.77;8.23;;;27.30;97.80;;;;;;5045710;28;20041;-72
2023/06/10 12:28:06;;;;;;;12.30;8.25;;;27.30;97.40;;;;;;5043693;28;20060;-73
2023/06/10 12:30:32;;;;;;;10.68;7.82;;;27.70;97.40;;;;;;5044418;28;20060;-73
2023/06/10 12:32:58;;;;;;;9.82;7.63;;;27.80;97.00;;;;;;5046776;28;20028;-73
2023/06/10 12:35:26;;;;;;;8.90;7.07;;;27.40;96.80;;;;;;5047260;28;20060;-73